Time;durP1;ratioP1;P1;durP2;ratioP2;P2;SDS_P1;SDS_P2;PMS_P1;PMS_P2;Temp;Humidity;BMP_temperature;BMP_pressure;BME280_temperature;BME280_humidity;BME280_pressure;Samples;Min_cycle;Max_cycle;Signal;HPM_P1;HPM_P2
2022/05/29 00:01:01;;;;;;;12.30;2.33;;;;;;;10.69;85.67;100096.08;3408435;84;99237;-88
2022/05/29 00:06:05;;;;;;;9.13;2.30;;;;;;;10.70;85.94;100092.14;3431144;84;99322;-87
2022/05/29 00:11:10;;;;;;;10.63;2.60;;;;;;;10.70;85.64;100088.81;3401244;84;99377;-88
2022/05/29 00:16:12;;;;;;;12.50;2.70;;;;;;;10.72;85.79;100089.78;3438023;84;30683;-86
2022/05/29 00:21:13;;;;;;;8.05;2.67;;;;;;;10.71;85.74;100092.34;3421104;84;99133;-88
2022/05/29 00:26:14;;;;;;;8.25;2.10;;;;;;;10.71;85.77;100086.83;3400123;84;98727;-88
2022/05/29 00:31:15;;;;;;;9.80;2.73;;;;;;;10.71;85.89;100069.75;3367814;84;98979;-88
2022/05/29 00:36:16;;;;;;;7.43;2.30;;;;;;;10.70;85.71;100066.00;3436652;83;98814;-88
2022/05/29 00:41:34;;;;;;;10.10;2.00;;;;;;;10.68;85.66;100069.73;3378397;84;99195;-87
2022/05/29 00:46:35;;;;;;;9.60;2.30;;;;;;;10.65;85.45;100071.29;3471670;84;98950;-87
2022/05/29 00:51:50;;;;;;;9.87;2.30;;;;;;;10.61;85.17;100069.10;3407200;84;98963;-90
2022/05/29 00:56:53;;;;;;;12.33;2.87;;;;;;;10.59;85.07;100065.95;3420874;84;98650;-88
2022/05/29 01:01:55;;;;;;;7.28;2.10;;;;;;;10.56;84.78;100066.72;3426413;84;99134;-88
2022/05/29 01:06:56;;;;;;;6.47;1.90;;;;;;;10.56;84.78;100066.72;3401481;84;98913;-88
2022/05/29 01:12:32;;;;;;;9.80;2.10;;;;;;;10.55;84.99;100066.52;3416970;84;99031;-88
2022/05/29 01:18:18;;;;;;;8.98;2.15;;;;;;;10.53;84.95;100059.22;3416107;84;99576;-87
2022/05/29 01:23:34;;;;;;;9.10;2.42;;;;;;;10.45;84.80;100046.61;3456322;83;99108;-88
2022/05/29 01:28:51;;;;;;;11.68;1.87;;;;;;;10.48;84.80;100058.81;3422871;84;98791;-87
2022/05/29 01:34:22;;;;;;;13.03;2.90;;;;;;;10.31;84.81;100036.89;3447911;84;99116;-88
2022/05/29 01:39:29;;;;;;;8.43;2.17;;;;;;;10.31;84.81;100036.89;3393657;84;98670;-87
2022/05/29 01:44:33;;;;;;;;;;;;;;;10.40;84.93;100062.10;3411771;84;99163;-88
2022/05/29 01:49:38;;;;;;;5.62;1.80;;;;;;;10.37;85.26;100060.71;3394635;85;84811;-86
2022/05/29 01:54:53;;;;;;;8.23;2.52;;;;;;;10.33;84.87;100051.64;3395864;85;98839;-87
2022/05/29 02:00:08;;;;;;;10.85;1.98;;;;;;;10.35;85.00;100057.56;3370414;85;99276;-87
2022/05/29 02:05:14;;;;;;;7.40;1.95;;;;;;;10.33;85.25;100059.89;3392942;84;99086;-87
2022/05/29 02:10:43;;;;;;;7.62;1.90;;;;;;;10.33;85.08;100058.52;3417138;85;25926;-87
2022/05/29 02:15:52;;;;;;;13.67;2.40;;;;;;;10.32;85.14;100058.32;3450922;81;98416;-86
2022/05/29 02:20:57;;;;;;;11.50;2.50;;;;;;;10.29;85.02;100061.25;3394932;84;98978;-89
2022/05/29 02:26:01;;;;;;;11.37;2.27;;;;;;;10.28;85.08;100052.00;3412407;85;99044;-87
2022/05/29 02:31:32;;;;;;;8.27;1.80;;;;;;;10.27;85.02;100056.73;3384011;83;99073;-87
2022/05/29 02:36:41;;;;;;;6.00;1.87;;;;;;;10.26;84.97;100061.23;3384593;85;99435;-89
2022/05/29 02:42:11;;;;;;;9.83;2.02;;;;;;;10.26;84.97;100058.48;3416761;84;98906;-89
2022/05/29 02:47:33;;;;;;;10.40;2.50;;;;;;;10.23;85.00;100057.86;3421166;84;99317;-88
2022/05/29 02:52:34;;;;;;;13.57;2.80;;;;;;;10.21;85.29;100059.64;3424973;85;99422;-88
2022/05/29 02:57:35;;;;;;;10.67;1.90;;;;;;;10.20;85.35;100055.89;3425443;84;99370;-87
2022/05/29 03:03:06;;;;;;;7.70;1.90;;;;;;;10.19;85.25;100059.82;3459865;84;99325;-87
2022/05/29 03:08:29;;;;;;;6.77;2.17;;;;;;;10.16;85.09;100062.75;3399431;84;97944;-88
2022/05/29 03:13:50;;;;;;;9.63;2.07;;;;;;;10.18;85.44;100060.97;3441276;83;98820;-88
2022/05/29 03:19:15;;;;;;;10.38;1.95;;;;;;;10.16;85.20;100068.25;3395933;85;99232;-88
2022/05/29 03:24:46;;;;;;;8.50;2.08;;;;;;;10.15;85.50;100072.14;3446268;83;99380;-87
2022/05/29 03:29:55;;;;;;;10.15;2.20;;;;;;;10.14;85.33;100076.67;3419777;84;99234;-87
2022/05/29 03:34:56;;;;;;;11.90;2.02;;;;;;;10.08;85.22;100071.33;3452091;83;99398;-87
2022/05/29 03:39:57;;;;;;;9.17;2.50;;;;;;;10.05;85.17;100075.63;3421687;84;31678;-88
2022/05/29 03:44:58;;;;;;;7.00;2.40;;;;;;;10.02;85.18;100084.59;3393588;84;99160;-88
2022/05/29 03:49:59;;;;;;;6.53;2.57;;;;;;;9.98;85.28;100077.50;3438838;84;98673;-88
2022/05/29 03:55:00;;;;;;;9.73;2.47;;;;;;;9.93;85.18;100082.75;3394016;84;98616;-89
2022/05/29 04:00:04;;;;;;;6.00;1.97;;;;;;;9.91;85.46;100078.23;3431646;84;98544;-88
2022/05/29 04:05:08;;;;;;;10.25;2.33;;;;;;;9.87;85.40;100088.39;3433340;84;98649;-87
2022/05/29 04:15:29;;;;;;;8.23;2.62;;;;;;;9.79;85.97;100100.52;3412690;84;99051;-87
2022/05/29 04:20:30;;;;;;;7.00;3.57;;;;;;;9.76;86.14;100103.23;3432739;84;98803;-88
2022/05/29 04:25:31;;;;;;;9.80;2.43;;;;;;;9.75;86.45;100096.16;3376032;85;98840;-86
2022/05/29 04:30:32;;;;;;;11.57;2.37;;;;;;;9.75;86.50;100101.06;3419746;84;98839;-87
2022/05/29 04:35:41;;;;;;;8.27;2.40;;;;;;;9.78;86.77;100102.26;3399278;84;98680;-88
2022/05/29 04:40:43;;;;;;;9.47;2.53;;;;;;;9.80;87.21;100100.71;3350390;86;30435;-88
2022/05/29 04:45:45;;;;;;;8.65;2.77;;;;;;;9.82;87.12;100096.98;3399507;84;98147;-88
2022/05/29 04:50:46;;;;;;;9.15;2.50;;;;;;;9.87;87.15;100095.88;3405555;84;99076;-86
2022/05/29 04:55:47;;;;;;;8.20;2.40;;;;;;;9.93;87.08;100089.62;3417241;84;98378;-87
2022/05/29 05:00:48;;;;;;;8.77;2.30;;;;;;;10.03;87.40;100084.80;3437909;84;98805;-89
2022/05/29 05:05:49;;;;;;;9.73;3.00;;;;;;;10.16;87.27;100095.75;3440023;83;98793;-87
2022/05/29 05:10:50;;;;;;;7.27;2.37;;;;;;;10.33;87.28;100090.15;3440278;83;99263;-87
2022/05/29 05:16:00;;;;;;;10.67;2.70;;;;;;;10.54;87.50;100093.03;3444612;84;33042;-87
2022/05/29 05:21:05;;;;;;;7.80;2.20;;;;;;;10.87;87.12;100087.30;3438292;83;99305;-88
2022/05/29 05:26:12;;;;;;;11.10;3.12;;;;;;;11.32;86.90;100086.66;3446322;83;98691;-87
2022/05/29 05:31:14;;;;;;;8.20;2.50;;;;;;;11.87;85.67;100093.47;3385475;84;99111;-87
2022/05/29 05:36:15;;;;;;;7.53;2.07;;;;;;;12.53;85.02;100093.42;3433028;84;98830;-89
2022/05/29 05:41:16;;;;;;;7.23;2.33;;;;;;;13.25;84.32;100088.05;3395471;84;98780;-88
2022/05/29 05:46:18;;;;;;;7.93;2.43;;;;;;;14.12;82.76;100084.49;3383533;85;26420;-87
2022/05/29 05:51:20;;;;;;;5.57;2.13;;;;;;;14.65;79.69;100093.08;3427562;83;98965;-87
2022/05/29 05:56:21;;;;;;;10.83;2.63;;;;;;;15.06;78.15;100097.37;3398561;85;99053;-87
2022/05/29 06:01:22;;;;;;;9.75;2.42;;;;;;;15.57;77.22;100099.87;3407562;84;99523;-87
2022/05/29 06:06:24;;;;;;;9.33;2.17;;;;;;;16.00;74.96;100097.22;3345332;84;98831;-86
2022/05/29 06:11:26;;;;;;;8.93;2.30;;;;;;;16.26;72.59;100097.19;3334990;85;98937;-87
2022/05/29 06:16:28;;;;;;;11.45;2.25;;;;;;;16.60;72.87;100102.55;3382324;85;33289;-85
2022/05/29 06:21:29;;;;;;;8.85;1.75;;;;;;;16.84;70.31;100105.48;3373806;85;99189;-87
2022/05/29 06:26:30;;;;;;;6.90;1.90;;;;;;;17.00;71.03;100108.34;3386601;84;99331;-87
2022/05/29 06:31:31;;;;;;;6.53;2.57;;;;;;;17.63;70.52;100099.45;3362617;85;99241;-86
2022/05/29 06:36:32;;;;;;;9.93;2.37;;;;;;;18.15;68.75;100104.97;3407281;84;99155;-85
2022/05/29 06:41:34;;;;;;;6.13;1.97;;;;;;;18.65;67.45;100108.84;3387366;84;99311;-86
2022/05/29 06:46:35;;;;;;;7.40;2.47;;;;;;;18.82;65.10;100110.39;3399777;83;30467;-86
2022/05/29 06:51:36;;;;;;;5.57;1.80;;;;;;;18.95;63.83;100108.42;3423365;84;99188;-86
2022/05/29 06:56:37;;;;;;;7.65;2.47;;;;;;;18.99;62.41;100112.50;3398026;84;99219;-85
2022/05/29 07:07:01;;;;;;;5.00;1.62;;;;;;;18.86;61.41;100114.47;3424614;84;98799;-84
2022/05/29 07:12:10;;;;;;;8.18;1.98;;;;;;;18.76;60.60;100124.70;3389074;84;99853;-84
2022/05/29 07:17:11;;;;;;;8.10;1.80;;;;;;;18.70;58.89;100118.69;3416399;84;98823;-84
2022/05/29 07:22:12;;;;;;;5.80;1.57;;;;;;;18.62;59.94;100111.13;3445624;84;99010;-84
2022/05/29 07:27:13;;;;;;;7.20;1.73;;;;;;;18.49;59.03;100120.64;3404330;84;99218;-83
2022/05/29 07:32:14;;;;;;;4.13;1.43;;;;;;;18.52;59.55;100112.81;3371559;84;98760;-84
2022/05/29 07:37:17;;;;;;;6.40;1.80;;;;;;;18.52;59.04;100120.55;3447462;83;98966;-85
2022/05/29 07:47:42;;;;;;;6.15;1.77;;;;;;;19.01;59.28;100117.81;3378095;84;98875;-84
2022/05/29 07:52:45;;;;;;;6.07;2.10;;;;;;;19.02;57.20;100120.77;3412125;85;98570;-85
2022/05/29 07:57:46;;;;;;;4.72;2.00;;;;;;;19.13;57.57;100116.30;3416585;84;98894;-85
2022/05/29 08:02:47;;;;;;;7.42;1.77;;;;;;;18.90;56.02;100121.50;3378057;85;99047;-85
2022/05/29 08:07:50;;;;;;;7.93;1.90;;;;;;;18.97;56.43;100124.09;3405359;84;98959;-85
2022/05/29 08:12:52;;;;;;;6.80;2.40;;;;;;;19.20;56.33;100114.09;3386002;84;99198;-84
2022/05/29 08:17:53;;;;;;;6.25;1.72;;;;;;;19.19;55.47;100119.47;3385162;84;99899;-86
2022/05/29 08:22:54;;;;;;;6.60;1.53;;;;;;;19.08;55.66;100125.20;3369967;85;98867;-83
2022/05/29 08:33:31;;;;;;;6.60;1.90;;;;;;;18.76;54.57;100129.48;3374690;85;99249;-84
2022/05/29 08:38:36;;;;;;;5.08;1.67;;;;;;;18.41;53.80;100138.75;3380299;85;99072;-85
2022/05/29 08:43:42;;;;;;;4.78;1.60;;;;;;;18.14;54.16;100143.17;3363412;85;98895;-84
2022/05/29 08:48:44;;;;;;;5.05;2.08;;;;;;;18.10;53.84;100147.27;3371335;85;99240;-80
2022/05/29 08:54:05;;;;;;;8.73;1.87;;;;;;;18.02;54.84;100147.25;3386381;85;98988;-79
2022/05/29 08:59:40;;;;;;;7.17;1.85;;;;;;;18.58;55.40;100141.09;3421439;84;98839;-80
2022/05/29 09:04:56;;;;;;;3.60;1.45;;;;;;;19.28;55.75;100142.58;3393135;84;98681;-80
2022/05/29 09:10:05;;;;;;;5.67;1.40;;;;;;;19.36;53.39;100145.34;3398612;84;98535;-80
2022/05/29 09:15:30;;;;;;;6.40;2.02;;;;;;;19.49;52.03;100138.56;3394962;84;98734;-79
2022/05/29 09:20:51;;;;;;;7.37;1.98;;;;;;;19.27;51.47;100140.41;3413612;84;99248;-79
2022/05/29 09:25:54;;;;;;;6.87;1.62;;;;;;;19.27;51.96;100137.62;3403466;84;98813;-81
2022/05/29 09:31:12;;;;;;;6.12;2.20;;;;;;;19.50;51.63;100140.75;3407287;84;99082;-80
2022/05/29 09:36:33;;;;;;;3.50;1.20;;;;;;;19.27;50.40;100141.81;3374274;85;98828;-80
2022/05/29 09:41:44;;;;;;;6.12;2.20;;;;;;;19.11;51.86;100139.65;3379481;85;98932;-80
2022/05/29 09:46:51;;;;;;;5.28;1.52;;;;;;;18.90;50.83;100142.42;3397867;84;33692;-79
2022/05/29 09:52:14;;;;;;;7.03;1.50;;;;;;;18.27;52.18;100142.67;3431040;84;99089;-80
2022/05/29 09:57:29;;;;;;;8.35;2.42;;;;;;;17.76;52.44;100149.03;3449128;83;99272;-80
2022/05/29 10:02:38;;;;;;;2.85;1.25;;;;;;;17.32;52.91;100150.16;3360376;85;99118;-79
2022/05/29 10:07:42;;;;;;;6.93;2.03;;;;;;;16.94;53.72;100148.97;3350569;86;98904;-79
2022/05/29 10:12:46;;;;;;;6.53;1.70;;;;;;;16.79;54.23;100151.20;3347563;85;99247;-79
2022/05/29 10:17:47;;;;;;;7.33;2.37;;;;;;;16.39;54.87;100157.89;3399752;84;98877;-78
2022/05/29 10:22:48;;;;;;;12.77;3.20;;;;;;;16.16;55.39;100152.88;3392445;85;98940;-80
2022/05/29 10:27:53;;;;;;;5.87;2.03;;;;;;;16.08;56.03;100161.16;3400580;84;99368;-79
2022/05/29 10:33:08;;;;;;;9.43;2.50;;;;;;;15.94;56.33;100156.60;3399177;84;98687;-79
2022/05/29 10:38:24;;;;;;;8.95;2.33;;;;;;;15.88;56.88;100150.55;3376260;83;98842;-79
2022/05/29 10:43:47;;;;;;;6.42;1.85;;;;;;;15.80;56.87;100152.64;3401310;84;98851;-79
2022/05/29 10:49:09;;;;;;;7.37;2.00;;;;;;;15.95;57.65;100145.68;3398334;85;98892;-78
2022/05/29 10:54:27;;;;;;;9.83;2.25;;;;;;;16.04;57.33;100136.82;3393290;83;98832;-79
2022/05/29 10:59:59;;;;;;;4.42;1.62;;;;;;;16.16;57.02;100139.00;3394997;84;99192;-80
2022/05/29 11:05:20;;;;;;;5.80;1.90;;;;;;;16.27;56.29;100143.19;3391826;84;98732;-81
2022/05/29 11:10:55;;;;;;;6.05;1.90;;;;;;;16.33;56.33;100135.94;3355249;84;33757;-78
2022/05/29 11:16:31;;;;;;;6.50;1.92;;;;;;;16.36;55.61;100133.69;3361450;84;98831;-79
2022/05/29 11:22:04;;;;;;;6.60;2.10;;;;;;;16.39;55.71;100134.88;3314736;86;99112;-79
2022/05/29 11:27:35;;;;;;;4.87;1.60;;;;;;;16.34;55.90;100132.54;3333459;85;99130;-79
2022/05/29 11:32:50;;;;;;;3.62;1.47;;;;;;;16.49;55.63;100132.52;3356710;85;98872;-80
2022/05/29 11:38:27;;;;;;;4.77;1.50;;;;;;;16.73;55.42;100125.74;3332425;85;98831;-80
2022/05/29 11:43:54;;;;;;;5.22;1.92;;;;;;;17.04;54.79;100122.34;3325833;86;98895;-79
2022/05/29 11:54:38;;;;;;;6.10;1.62;;;;;;;17.56;55.62;100132.98;3340927;85;84803;-78
2022/05/29 11:59:54;;;;;;;5.05;1.87;;;;;;;17.66;55.50;100136.77;3361729;85;99427;-78
2022/05/29 12:05:20;;;;;;;11.07;3.20;;;;;;;17.69;54.60;100125.55;3357788;86;99142;-79
2022/05/29 12:10:24;;;;;;;7.53;2.27;;;;;;;17.82;54.80;100133.39;3354331;85;98609;-80
2022/05/29 12:15:25;;;;;;;4.87;1.53;;;;;;;17.76;53.54;100136.52;3418434;84;99105;-79
2022/05/29 12:20:50;;;;;;;8.17;2.43;;;;;;;17.50;52.58;100145.06;3417740;84;98830;-80
2022/05/29 12:26:02;;;;;;;7.87;2.20;;;;;;;17.33;53.49;100136.45;3431949;84;98804;-77
2022/05/29 12:31:06;;;;;;;5.42;1.62;;;;;;;17.39;53.74;100129.20;3421004;84;98823;-78
2022/05/29 12:36:27;;;;;;;8.98;2.27;;;;;;;17.10;52.96;100140.69;3440206;84;99157;-78
2022/05/29 12:42:05;;;;;;;7.17;1.72;;;;;;;16.84;53.20;100145.16;3431475;84;98765;-79
2022/05/29 12:47:24;;;;;;;5.53;2.10;;;;;;;16.78;53.76;100148.25;3444915;84;33935;-79
2022/05/29 12:52:59;;;;;;;6.72;2.60;;;;;;;16.78;54.58;100131.58;3438859;84;98902;-79
2022/05/29 12:58:26;;;;;;;6.80;1.85;;;;;;;16.63;53.98;100129.50;3417567;84;99625;-78
2022/05/29 13:03:55;;;;;;;3.55;1.40;;;;;;;16.61;54.77;100129.91;3431670;83;98798;-79
2022/05/29 13:09:29;;;;;;;6.45;1.77;;;;;;;16.55;54.84;100119.11;3454114;83;98766;-78
2022/05/29 13:14:31;;;;;;;7.00;1.60;;;;;;;16.62;55.16;100118.98;3441944;82;98910;-78
2022/05/29 13:20:06;;;;;;;4.33;1.62;;;;;;;16.64;54.47;100119.95;3447398;83;98693;-79
2022/05/29 13:25:07;;;;;;;3.25;1.27;;;;;;;16.86;55.30;100112.78;3439820;83;99210;-80
2022/05/29 13:30:31;;;;;;;3.57;1.40;;;;;;;17.50;55.20;100113.83;3338875;86;98863;-79
2022/05/29 13:35:42;;;;;;;3.58;1.30;;;;;;;17.85;54.01;100108.88;3331553;85;98894;-79
2022/05/29 13:40:45;;;;;;;3.83;1.25;;;;;;;18.58;53.97;100102.06;3337814;86;33798;-79
2022/05/29 13:45:57;;;;;;;3.22;1.10;;;;;;;19.21;50.87;100098.94;3363593;85;99131;-79
2022/05/29 13:51:18;;;;;;;5.53;1.20;;;;;;;19.44;50.64;100100.64;3357399;85;98772;-78
2022/05/29 13:56:20;;;;;;;5.00;1.30;;;;;;;19.73;48.43;100108.34;3365348;85;98846;-79
2022/05/29 14:07:15;;;;;;;2.42;1.22;;;;;;;19.79;47.30;100106.55;3375188;85;98833;-79
2022/05/29 14:12:24;;;;;;;5.20;1.37;;;;;;;20.06;47.50;100104.08;3347419;85;98977;-79
2022/05/29 14:17:32;;;;;;;4.62;1.27;;;;;;;20.16;47.98;100097.39;3331520;85;33213;-78
2022/05/29 14:23:04;;;;;;;4.40;1.30;;;;;;;20.26;46.79;100101.83;3306854;87;98547;-79
2022/05/29 14:28:11;;;;;;;3.90;1.65;;;;;;;20.03;46.00;100088.20;3362152;85;98724;-78
2022/05/29 14:33:45;;;;;;;2.47;1.20;;;;;;;19.86;46.03;100083.97;3297400;86;98712;-79
2022/05/29 14:39:09;;;;;;;4.15;1.60;;;;;;;19.80;46.50;100079.58;3415513;83;99254;-78
2022/05/29 14:44:27;;;;;;;4.47;1.87;;;;;;;19.73;46.39;100075.59;3412280;84;98852;-78
2022/05/29 14:49:50;;;;;;;4.50;2.00;;;;;;;19.72;46.85;100072.64;3443602;83;98959;-80
2022/05/29 14:54:57;;;;;;;4.10;1.40;;;;;;;19.68;46.67;100069.80;3405072;83;99363;-80
2022/05/29 15:00:01;;;;;;;4.78;1.60;;;;;;;19.58;47.85;100065.33;3435181;83;98859;-79
2022/05/29 15:05:13;;;;;;;3.35;1.25;;;;;;;19.60;47.11;100053.88;3438752;84;98557;-79
2022/05/29 15:10:34;;;;;;;4.80;1.40;;;;;;;19.66;47.78;100049.30;3432931;84;98737;-79
2022/05/29 15:15:44;;;;;;;4.53;1.50;;;;;;;19.70;45.97;100037.41;3413347;84;98629;-79
2022/05/29 15:26:14;;;;;;;3.83;1.30;;;;;;;19.36;45.30;100045.67;3444283;83;99263;-79
2022/05/29 15:31:30;;;;;;;4.37;1.20;;;;;;;19.18;44.23;100049.56;3448563;83;98879;-79
2022/05/29 15:36:49;;;;;;;4.58;1.60;;;;;;;18.74;44.26;100050.45;3424037;83;98984;-79
2022/05/29 15:42:07;;;;;;;5.53;1.15;;;;;;;18.52;44.31;100046.69;3416599;84;98980;-80
2022/05/29 15:47:40;;;;;;;4.95;1.65;;;;;;;18.45;45.71;100030.77;3437502;83;34394;-79
2022/05/29 15:52:58;;;;;;;4.37;1.95;;;;;;;18.60;45.78;100030.56;3436145;83;98990;-78
2022/05/29 15:58:17;;;;;;;2.72;1.30;;;;;;;18.71;47.16;100023.48;3436909;83;99116;-79
2022/05/29 16:03:24;;;;;;;3.67;1.15;;;;;;;18.73;45.57;100026.59;3434585;83;98835;-78
2022/05/29 16:08:35;;;;;;;3.77;1.17;;;;;;;18.85;46.04;100025.84;3422669;84;98875;-79
2022/05/29 16:13:47;;;;;;;2.52;1.35;;;;;;;18.83;46.15;100028.30;3438219;82;98884;-79
2022/05/29 16:19:02;;;;;;;2.80;1.37;;;;;;;18.73;45.51;100022.41;3429283;83;98893;-79
2022/05/29 16:24:16;;;;;;;4.53;1.30;;;;;;;18.61;45.78;100020.97;3421909;83;99198;-79
2022/05/29 16:29:41;;;;;;;6.87;1.97;;;;;;;18.47;46.59;100022.77;3458987;83;26001;-79
2022/05/29 16:34:45;;;;;;;3.93;1.70;;;;;;;18.24;47.24;100027.92;3433855;83;98933;-79
2022/05/29 16:50:38;;;;;;;4.37;1.80;;;;;;;17.88;46.75;100031.42;3445739;84;99490;-78
2022/05/29 16:55:43;;;;;;;7.15;1.80;;;;;;;17.72;46.86;100030.03;3431296;82;99507;-79
2022/05/29 17:01:23;;;;;;;6.05;1.80;;;;;;;17.57;47.13;100031.61;3433016;84;98892;-78
2022/05/29 17:06:40;;;;;;;2.47;1.50;;;;;;;17.45;47.86;100021.76;3425401;83;99208;-79
2022/05/29 17:11:43;;;;;;;2.00;1.17;;;;;;;17.38;48.64;100026.08;3423741;84;98971;-78
2022/05/29 17:16:44;;;;;;;3.97;1.27;;;;;;;17.29;49.05;100030.05;3429618;84;98495;-78
2022/05/29 17:22:17;;;;;;;3.60;1.40;;;;;;;17.26;49.03;100031.69;3434229;82;98861;-78
2022/05/29 17:27:29;;;;;;;6.33;1.87;;;;;;;17.23;50.16;100021.41;3437809;84;98633;-78
2022/05/29 17:32:59;;;;;;;4.92;1.82;;;;;;;17.20;50.47;100017.33;3427336;84;98887;-78
2022/05/29 17:38:20;;;;;;;7.00;2.05;;;;;;;17.13;50.85;100029.41;3433568;84;98867;-78
2022/05/29 17:43:23;;;;;;;3.72;1.55;;;;;;;17.07;51.34;100025.54;3434541;83;98872;-78
2022/05/29 17:48:50;;;;;;;3.70;1.47;;;;;;;16.85;51.64;100024.42;3440508;83;99140;-79
2022/05/29 17:54:30;;;;;;;3.42;1.60;;;;;;;16.71;51.77;100019.77;3434926;83;99237;-79
2022/05/29 17:59:34;;;;;;;4.53;1.67;;;;;;;16.55;52.57;100031.60;3443511;83;33383;-79
2022/05/29 18:04:42;;;;;;;4.75;1.67;;;;;;;16.50;53.51;100016.02;3429240;83;99075;-79
2022/05/29 18:09:44;;;;;;;8.48;2.30;;;;;;;16.36;54.11;100022.59;3451484;83;98345;-79
2022/05/29 18:14:45;;;;;;;5.58;2.15;;;;;;;16.23;54.68;100031.97;3415857;84;98829;-79
2022/05/29 18:19:47;;;;;;;6.53;2.40;;;;;;;16.08;55.56;100030.67;3324566;86;98043;-79
2022/05/29 18:24:48;;;;;;;4.03;2.00;;;;;;;15.88;56.04;100024.27;3338896;85;98831;-79
2022/05/29 18:29:49;;;;;;;7.37;2.40;;;;;;;15.67;56.52;100029.58;3334890;86;99291;-79
2022/05/29 18:34:51;;;;;;;5.43;2.60;;;;;;;15.51;57.57;100032.20;3343496;85;97573;-79
2022/05/29 18:39:52;;;;;;;10.30;3.30;;;;;;;15.37;58.72;100030.25;3341120;85;99186;-79
2022/05/29 18:44:53;;;;;;;5.43;2.67;;;;;;;15.17;59.88;100033.46;3326120;86;98995;-79
2022/05/29 18:49:54;;;;;;;10.70;4.80;;;;;;;14.98;60.41;100027.97;3345433;86;97986;-79
2022/05/29 18:54:55;;;;;;;11.70;5.43;;;;;;;14.85;60.42;100036.66;3343086;85;98553;-79
2022/05/29 19:00:02;;;;;;;14.87;6.67;;;;;;;14.82;60.70;100041.63;3338416;86;99316;-79
2022/05/29 19:05:06;;;;;;;20.20;10.57;;;;;;;14.77;61.22;100039.31;3357536;85;99067;-79
2022/05/29 19:10:08;;;;;;;25.00;14.38;;;;;;;14.71;61.80;100040.20;3338688;85;99080;-79
2022/05/29 19:15:11;;;;;;;25.72;12.43;;;;;;;14.56;62.59;100047.10;3334227;85;99070;-79
2022/05/29 19:20:13;;;;;;;25.32;12.37;;;;;;;14.41;63.37;100044.29;3343334;85;98790;-79
2022/05/29 19:25:15;;;;;;;21.60;10.25;;;;;;;14.35;63.80;100039.81;3339173;85;99582;-79
2022/05/29 19:30:21;;;;;;;22.03;11.13;;;;;;;14.32;63.67;100036.47;3337372;86;99552;-79
2022/05/29 19:35:20;;;;;;;19.05;9.63;;;;;;;14.31;63.77;100045.19;3362219;85;98694;-79
2022/05/29 19:40:25;;;;;;;17.67;7.78;;;;;;;14.32;63.75;100043.98;3385124;84;98084;-80
2022/05/29 19:45:27;;;;;;;13.18;6.33;;;;;;;14.27;64.42;100043.04;3340011;85;99213;-79
2022/05/29 19:50:30;;;;;;;11.75;5.28;;;;;;;14.18;64.84;100033.80;3347334;86;99552;-79
2022/05/29 19:55:32;;;;;;;13.25;4.15;;;;;;;14.08;64.68;100031.95;3308801;86;99029;-79
2022/05/29 20:00:33;;;;;;;8.73;3.52;;;;;;;13.99;64.50;100033.59;3344387;85;98268;-80
2022/05/29 20:05:34;;;;;;;10.20;3.83;;;;;;;13.87;64.81;100034.10;3317114;87;99040;-80
2022/05/29 20:10:35;;;;;;;8.07;3.37;;;;;;;13.67;65.02;100031.11;3435979;83;99119;-80
2022/05/29 20:15:36;;;;;;;6.93;2.87;;;;;;;13.57;65.53;100031.20;3433931;84;98901;-80
2022/05/29 20:20:37;;;;;;;7.10;3.17;;;;;;;13.45;65.55;100030.27;3446408;83;98884;-80
2022/05/29 20:25:38;;;;;;;7.47;3.23;;;;;;;13.30;65.96;100037.88;3426972;84;98801;-80
2022/05/29 20:30:39;;;;;;;8.47;3.53;;;;;;;13.10;66.17;100036.83;3456070;83;97852;-80
2022/05/29 20:35:42;;;;;;;7.00;3.25;;;;;;;12.93;67.08;100040.41;3427145;83;98141;-80
2022/05/29 20:40:44;;;;;;;6.00;2.70;;;;;;;12.75;67.49;100044.47;3437483;83;97661;-79
2022/05/29 20:47:23;;;;;;;7.47;2.77;;;;;;;12.51;68.31;100042.56;3423061;83;99095;-81
2022/05/29 20:50:49;;;;;;;9.18;3.70;;;;;;;12.35;68.36;100038.86;3422162;83;99263;-79
2022/05/29 20:55:49;;;;;;;10.70;4.40;;;;;;;12.10;68.53;100013.89;3456561;83;98828;-80
2022/05/29 21:00:51;;;;;;;10.10;4.43;;;;;;;12.06;69.06;100042.06;3436525;84;99036;-81
2022/05/29 21:05:52;;;;;;;10.97;3.80;;;;;;;11.85;69.57;100042.08;3460256;83;99507;-80
2022/05/29 21:10:52;;;;;;;8.07;3.93;;;;;;;11.71;69.73;100040.11;3436895;83;98868;-80
2022/05/29 21:15:56;;;;;;;11.30;4.80;;;;;;;11.61;69.80;100038.73;3439672;84;98834;-80
2022/05/29 21:21:02;;;;;;;11.93;4.90;;;;;;;11.45;70.68;100045.19;3422775;83;99639;-80
2022/05/29 21:26:01;;;;;;;11.40;3.80;;;;;;;11.31;70.64;100033.55;3449443;83;99146;-80
2022/05/29 21:31:05;;;;;;;8.58;3.92;;;;;;;11.22;71.31;100036.46;3417542;83;99508;-80
2022/05/29 21:36:20;;;;;;;6.65;2.80;;;;;;;11.05;71.98;100035.83;3432961;83;98005;-81
2022/05/29 21:41:21;;;;;;;7.60;2.92;;;;;;;10.89;71.98;100035.39;3448814;83;98844;-81
2022/05/29 21:46:23;;;;;;;6.60;3.00;;;;;;;10.77;73.04;100035.16;3429883;83;98804;-81
2022/05/29 21:51:24;;;;;;;8.10;3.10;;;;;;;10.60;73.30;100027.63;3423883;84;99032;-81
2022/05/29 21:56:26;;;;;;;8.70;2.93;;;;;;;10.54;73.50;100024.25;3439799;83;99243;-81
2022/05/29 22:01:27;;;;;;;8.88;2.83;;;;;;;10.48;73.75;100023.81;3429628;84;99247;-81
2022/05/29 22:06:34;;;;;;;8.33;3.20;;;;;;;10.38;73.91;100013.57;3443840;83;99150;-81
2022/05/29 22:11:35;;;;;;;6.42;2.90;;;;;;;10.34;73.45;100012.75;3339731;85;97740;-81
2022/05/29 22:16:36;;;;;;;7.33;2.43;;;;;;;10.35;74.06;100014.93;3379380;85;98691;-82
2022/05/29 22:21:39;;;;;;;6.30;2.73;;;;;;;10.26;74.53;100008.38;3346353;84;99354;-82
2022/05/29 22:26:41;;;;;;;8.37;3.27;;;;;;;10.23;75.07;100009.16;3322075;86;98784;-81
2022/05/29 22:32:15;;;;;;;7.45;3.02;;;;;;;10.19;75.32;100009.72;3303273;86;98320;-81
2022/05/29 22:37:20;;;;;;;6.37;3.03;;;;;;;10.13;75.92;100008.50;3306917;86;99293;-83
2022/05/29 22:42:22;;;;;;;6.77;3.20;;;;;;;10.10;75.80;100005.73;3362116;85;98761;-83
2022/05/29 22:47:51;;;;;;;5.60;2.77;;;;;;;10.10;75.84;99998.30;3371339;85;28536;-84
2022/05/29 22:52:59;;;;;;;8.70;3.25;;;;;;;10.08;76.73;99994.34;3367079;84;98561;-83
2022/05/29 22:58:01;;;;;;;6.80;3.95;;;;;;;10.04;76.28;99992.92;3391074;84;98374;-84
2022/05/29 23:03:07;;;;;;;6.03;3.00;;;;;;;10.01;77.31;99988.17;3366100;84;98818;-83
2022/05/29 23:08:09;;;;;;;9.98;4.15;;;;;;;9.97;77.17;99990.11;3375572;85;98621;-83
2022/05/29 23:13:10;;;;;;;10.00;4.92;;;;;;;9.92;77.38;99989.09;3370637;85;98295;-83
2022/05/29 23:18:11;;;;;;;9.80;4.47;;;;;;;9.91;78.01;99999.09;3377928;84;98900;-83
2022/05/29 23:23:12;;;;;;;10.03;4.80;;;;;;;9.81;78.10;99998.45;3378865;85;98084;-83
2022/05/29 23:28:13;;;;;;;14.03;5.33;;;;;;;9.79;78.11;99998.03;3379225;85;98753;-83
2022/05/29 23:33:15;;;;;;;11.90;5.93;;;;;;;9.74;78.69;99997.01;3373199;85;98854;-83
2022/05/29 23:38:17;;;;;;;11.57;6.00;;;;;;;9.68;78.80;99993.04;3315296;87;98629;-84
2022/05/29 23:43:22;;;;;;;12.87;6.73;;;;;;;9.62;78.92;99996.73;3295041;87;98694;-84
2022/05/29 23:48:40;;;;;;;12.80;7.33;;;;;;;9.54;80.06;99992.95;3323794;86;98862;-83
2022/05/29 23:53:41;;;;;;;11.65;6.42;;;;;;;9.45;79.46;99994.64;3437875;82;98583;-83
2022/05/29 23:58:42;;;;;;;11.73;6.20;;;;;;;9.38;80.80;100001.42;3468280;83;98752;-84
